KOEO/OEO METAR and TAF weather

Enter ICAO airport designator
Station Type Date Time Source
KOEO METAR 2019/04/18 22:15 UTC NOAA

KOEO 182215Z AUTO 35008KT 10SM SCT023 BKN032 OVC046 09/05 A2991 RMK AO2 T00920050


Station Type Date Time Source
KOEO Decoded METAR 2019/04/18 22:15 UTC NOAA

Osceola, L O Simenstad Municipal Airport, WI, United States (KOEO) 45-18-31N 092-41-24W
Apr 18, 2019 - 06:15 PM EDT / 2019.04.18 2215 UTC
Wind: from the N (350 degrees) at 9 MPH (8 KT):0
Visibility: 10 mile(s):0
Sky conditions: overcast
Temperature: 48.6 F (9.2 C)
Dew Point: 41.0 F (5.0 C)
Relative Humidity: 74%
Pressure (altimeter): 29.91 in. Hg (1012 hPa)
ob: KOEO 182215Z AUTO 35008KT 10SM SCT023 BKN032 OVC046 09/05 A2991 RMK AO2 T00920050
cycle: 22

Station Type Date Time Source
KOEO TAF UTC NOAA

Error!

Example: see airport list